sensor_id;sensor_type;location;lat;lon;timestamp;P1;durP1;ratioP1;P2;durP2;ratioP2
38653;SDS011;24413;52.450;20.706;2024-03-06T00:02:10;76.38;;;47.75;;
38653;SDS011;24413;52.450;20.706;2024-03-06T00:04:36;78.50;;;47.17;;
38653;SDS011;24413;52.450;20.706;2024-03-06T00:07:01;78.80;;;46.33;;
38653;SDS011;24413;52.450;20.706;2024-03-06T00:09:26;73.07;;;47.25;;
38653;SDS011;24413;52.450;20.706;2024-03-06T00:11:52;82.93;;;47.88;;
38653;SDS011;24413;52.450;20.706;2024-03-06T00:14:18;75.70;;;47.97;;
38653;SDS011;24413;52.450;20.706;2024-03-06T00:16:43;82.90;;;46.15;;
38653;SDS011;24413;52.450;20.706;2024-03-06T00:19:08;66.88;;;44.83;;
38653;SDS011;24413;52.450;20.706;2024-03-06T00:21:34;72.05;;;47.33;;
38653;SDS011;24413;52.450;20.706;2024-03-06T00:24:01;74.03;;;45.08;;
38653;SDS011;24413;52.450;20.706;2024-03-06T00:26:26;79.32;;;45.15;;
38653;SDS011;24413;52.450;20.706;2024-03-06T00:28:52;77.45;;;47.20;;
38653;SDS011;24413;52.450;20.706;2024-03-06T00:31:17;71.43;;;45.78;;
38653;SDS011;24413;52.450;20.706;2024-03-06T00:33:43;74.88;;;47.58;;
38653;SDS011;24413;52.450;20.706;2024-03-06T00:36:08;70.43;;;43.33;;
38653;SDS011;24413;52.450;20.706;2024-03-06T00:38:34;71.78;;;44.08;;
38653;SDS011;24413;52.450;20.706;2024-03-06T00:40:59;70.78;;;44.17;;
38653;SDS011;24413;52.450;20.706;2024-03-06T00:43:24;69.85;;;42.65;;
38653;SDS011;24413;52.450;20.706;2024-03-06T00:45:49;66.22;;;42.45;;
38653;SDS011;24413;52.450;20.706;2024-03-06T00:48:15;63.57;;;41.23;;
38653;SDS011;24413;52.450;20.706;2024-03-06T00:50:41;67.53;;;40.80;;
38653;SDS011;24413;52.450;20.706;2024-03-06T00:53:06;56.95;;;41.38;;
38653;SDS011;24413;52.450;20.706;2024-03-06T00:55:31;56.47;;;40.05;;
38653;SDS011;24413;52.450;20.706;2024-03-06T00:57:57;64.83;;;39.80;;
38653;SDS011;24413;52.450;20.706;2024-03-06T01:00:22;60.03;;;39.75;;
38653;SDS011;24413;52.450;20.706;2024-03-06T01:02:48;53.97;;;36.97;;
38653;SDS011;24413;52.450;20.706;2024-03-06T01:05:13;58.80;;;38.00;;
38653;SDS011;24413;52.450;20.706;2024-03-06T01:07:38;56.22;;;38.63;;
38653;SDS011;24413;52.450;20.706;2024-03-06T01:10:04;61.40;;;39.90;;
38653;SDS011;24413;52.450;20.706;2024-03-06T01:12:31;59.38;;;37.38;;
38653;SDS011;24413;52.450;20.706;2024-03-06T01:14:57;62.58;;;38.65;;
38653;SDS011;24413;52.450;20.706;2024-03-06T01:17:22;50.03;;;37.13;;
38653;SDS011;24413;52.450;20.706;2024-03-06T01:19:47;60.70;;;37.75;;
38653;SDS011;24413;52.450;20.706;2024-03-06T01:22:12;63.27;;;36.17;;
38653;SDS011;24413;52.450;20.706;2024-03-06T01:24:40;49.45;;;35.88;;
38653;SDS011;24413;52.450;20.706;2024-03-06T01:27:05;50.15;;;35.20;;
38653;SDS011;24413;52.450;20.706;2024-03-06T01:29:31;60.20;;;34.50;;
38653;SDS011;24413;52.450;20.706;2024-03-06T01:31:56;54.63;;;36.38;;
38653;SDS011;24413;52.450;20.706;2024-03-06T01:34:21;62.63;;;36.75;;
38653;SDS011;24413;52.450;20.706;2024-03-06T01:36:50;55.10;;;36.35;;
38653;SDS011;24413;52.450;20.706;2024-03-06T01:39:15;58.25;;;37.05;;
38653;SDS011;24413;52.450;20.706;2024-03-06T01:41:47;52.90;;;35.08;;
38653;SDS011;24413;52.450;20.706;2024-03-06T01:44:13;47.83;;;30.58;;
38653;SDS011;24413;52.450;20.706;2024-03-06T01:46:38;48.08;;;30.42;;
38653;SDS011;24413;52.450;20.706;2024-03-06T01:49:04;46.88;;;31.35;;
38653;SDS011;24413;52.450;20.706;2024-03-06T01:51:29;41.10;;;29.00;;
38653;SDS011;24413;52.450;20.706;2024-03-06T01:53:55;48.80;;;31.10;;
38653;SDS011;24413;52.450;20.706;2024-03-06T01:56:20;43.17;;;29.67;;
38653;SDS011;24413;52.450;20.706;2024-03-06T01:58:45;42.15;;;28.85;;
38653;SDS011;24413;52.450;20.706;2024-03-06T02:01:11;44.05;;;29.27;;
38653;SDS011;24413;52.450;20.706;2024-03-06T02:03:37;44.00;;;28.60;;
38653;SDS011;24413;52.450;20.706;2024-03-06T02:06:02;39.53;;;29.42;;
38653;SDS011;24413;52.450;20.706;2024-03-06T02:08:28;40.95;;;28.83;;
38653;SDS011;24413;52.450;20.706;2024-03-06T02:10:54;49.95;;;28.30;;
38653;SDS011;24413;52.450;20.706;2024-03-06T02:13:19;44.10;;;28.63;;
38653;SDS011;24413;52.450;20.706;2024-03-06T02:15:46;47.40;;;29.02;;
38653;SDS011;24413;52.450;20.706;2024-03-06T02:18:11;49.53;;;29.80;;
38653;SDS011;24413;52.450;20.706;2024-03-06T02:20:40;44.50;;;30.73;;
38653;SDS011;24413;52.450;20.706;2024-03-06T02:23:05;49.08;;;30.45;;
38653;SDS011;24413;52.450;20.706;2024-03-06T02:25:30;46.00;;;30.58;;
38653;SDS011;24413;52.450;20.706;2024-03-06T02:27:56;47.72;;;31.27;;
38653;SDS011;24413;52.450;20.706;2024-03-06T02:30:21;50.47;;;31.02;;
38653;SDS011;24413;52.450;20.706;2024-03-06T02:32:46;47.43;;;31.13;;
38653;SDS011;24413;52.450;20.706;2024-03-06T02:35:11;51.90;;;29.50;;
38653;SDS011;24413;52.450;20.706;2024-03-06T02:37:37;44.17;;;31.42;;
38653;SDS011;24413;52.450;20.706;2024-03-06T02:40:02;45.75;;;30.40;;
38653;SDS011;24413;52.450;20.706;2024-03-06T02:42:28;49.67;;;31.13;;
38653;SDS011;24413;52.450;20.706;2024-03-06T02:44:54;44.08;;;30.70;;
38653;SDS011;24413;52.450;20.706;2024-03-06T02:47:19;48.15;;;31.02;;
38653;SDS011;24413;52.450;20.706;2024-03-06T02:49:44;51.05;;;31.30;;
38653;SDS011;24413;52.450;20.706;2024-03-06T02:52:10;44.83;;;30.35;;
38653;SDS011;24413;52.450;20.706;2024-03-06T02:54:35;40.47;;;29.15;;
38653;SDS011;24413;52.450;20.706;2024-03-06T02:57:00;44.40;;;29.58;;
38653;SDS011;24413;52.450;20.706;2024-03-06T02:59:26;43.50;;;29.95;;
38653;SDS011;24413;52.450;20.706;2024-03-06T03:01:51;46.95;;;31.10;;
38653;SDS011;24413;52.450;20.706;2024-03-06T03:04:17;51.72;;;29.20;;
38653;SDS011;24413;52.450;20.706;2024-03-06T03:06:42;47.17;;;28.63;;
38653;SDS011;24413;52.450;20.706;2024-03-06T03:09:08;50.50;;;29.17;;
38653;SDS011;24413;52.450;20.706;2024-03-06T03:11:36;49.10;;;29.75;;
38653;SDS011;24413;52.450;20.706;2024-03-06T03:14:01;43.30;;;29.08;;
38653;SDS011;24413;52.450;20.706;2024-03-06T03:16:27;47.60;;;28.90;;
38653;SDS011;24413;52.450;20.706;2024-03-06T03:18:52;42.38;;;29.02;;
38653;SDS011;24413;52.450;20.706;2024-03-06T03:21:17;43.00;;;29.23;;
38653;SDS011;24413;52.450;20.706;2024-03-06T03:23:43;42.83;;;28.23;;
38653;SDS011;24413;52.450;20.706;2024-03-06T03:26:08;45.80;;;28.15;;
38653;SDS011;24413;52.450;20.706;2024-03-06T03:28:37;44.63;;;29.30;;
38653;SDS011;24413;52.450;20.706;2024-03-06T03:31:02;44.17;;;27.80;;
38653;SDS011;24413;52.450;20.706;2024-03-06T03:33:27;45.08;;;28.20;;
38653;SDS011;24413;52.450;20.706;2024-03-06T03:35:53;41.55;;;27.75;;
38653;SDS011;24413;52.450;20.706;2024-03-06T03:38:18;40.33;;;27.35;;
38653;SDS011;24413;52.450;20.706;2024-03-06T03:40:43;45.08;;;26.10;;
38653;SDS011;24413;52.450;20.706;2024-03-06T03:43:09;36.72;;;26.33;;
38653;SDS011;24413;52.450;20.706;2024-03-06T03:45:34;40.78;;;27.05;;
38653;SDS011;24413;52.450;20.706;2024-03-06T03:48:01;44.97;;;26.60;;
38653;SDS011;24413;52.450;20.706;2024-03-06T03:50:27;37.42;;;26.83;;
38653;SDS011;24413;52.450;20.706;2024-03-06T03:52:53;38.45;;;25.52;;
38653;SDS011;24413;52.450;20.706;2024-03-06T03:55:18;36.13;;;25.63;;
38653;SDS011;24413;52.450;20.706;2024-03-06T03:57:43;35.67;;;25.43;;
38653;SDS011;24413;52.450;20.706;2024-03-06T04:00:08;36.65;;;27.10;;
38653;SDS011;24413;52.450;20.706;2024-03-06T04:02:36;47.47;;;28.45;;
38653;SDS011;24413;52.450;20.706;2024-03-06T04:05:01;41.28;;;26.83;;
38653;SDS011;24413;52.450;20.706;2024-03-06T04:07:26;44.23;;;25.83;;
38653;SDS011;24413;52.450;20.706;2024-03-06T04:09:52;41.83;;;25.40;;
38653;SDS011;24413;52.450;20.706;2024-03-06T04:12:17;41.47;;;24.25;;
38653;SDS011;24413;52.450;20.706;2024-03-06T04:14:42;39.40;;;25.25;;
38653;SDS011;24413;52.450;20.706;2024-03-06T04:17:08;34.15;;;24.23;;
38653;SDS011;24413;52.450;20.706;2024-03-06T04:19:33;41.75;;;25.25;;
38653;SDS011;24413;52.450;20.706;2024-03-06T04:21:58;36.83;;;25.38;;
38653;SDS011;24413;52.450;20.706;2024-03-06T04:24:23;42.28;;;26.08;;
38653;SDS011;24413;52.450;20.706;2024-03-06T04:26:48;40.47;;;26.07;;
38653;SDS011;24413;52.450;20.706;2024-03-06T04:29:14;39.75;;;26.17;;
38653;SDS011;24413;52.450;20.706;2024-03-06T04:31:39;46.60;;;24.90;;
38653;SDS011;24413;52.450;20.706;2024-03-06T04:34:04;34.92;;;23.10;;
38653;SDS011;24413;52.450;20.706;2024-03-06T04:36:30;41.83;;;26.30;;
38653;SDS011;24413;52.450;20.706;2024-03-06T04:38:55;36.50;;;24.98;;
38653;SDS011;24413;52.450;20.706;2024-03-06T04:41:21;38.72;;;26.17;;
38653;SDS011;24413;52.450;20.706;2024-03-06T04:43:49;39.25;;;24.77;;
38653;SDS011;24413;52.450;20.706;2024-03-06T04:46:16;33.13;;;21.30;;
38653;SDS011;24413;52.450;20.706;2024-03-06T04:48:41;36.53;;;21.75;;
38653;SDS011;24413;52.450;20.706;2024-03-06T04:51:06;35.10;;;23.77;;
38653;SDS011;24413;52.450;20.706;2024-03-06T04:53:31;35.05;;;22.02;;
38653;SDS011;24413;52.450;20.706;2024-03-06T04:55:57;33.97;;;22.55;;
38653;SDS011;24413;52.450;20.706;2024-03-06T04:58:22;36.08;;;22.63;;
38653;SDS011;24413;52.450;20.706;2024-03-06T05:00:47;32.80;;;22.05;;
38653;SDS011;24413;52.450;20.706;2024-03-06T05:03:12;33.30;;;23.92;;
38653;SDS011;24413;52.450;20.706;2024-03-06T05:05:37;34.77;;;21.03;;
38653;SDS011;24413;52.450;20.706;2024-03-06T05:08:05;28.48;;;20.20;;
38653;SDS011;24413;52.450;20.706;2024-03-06T05:10:32;28.33;;;19.15;;
38653;SDS011;24413;52.450;20.706;2024-03-06T05:12:57;30.48;;;20.17;;
38653;SDS011;24413;52.450;20.706;2024-03-06T05:15:22;34.78;;;20.75;;
38653;SDS011;24413;52.450;20.706;2024-03-06T05:17:47;29.83;;;17.50;;
38653;SDS011;24413;52.450;20.706;2024-03-06T05:20:13;27.25;;;18.15;;
38653;SDS011;24413;52.450;20.706;2024-03-06T05:22:39;33.00;;;18.90;;
38653;SDS011;24413;52.450;20.706;2024-03-06T05:25:04;29.60;;;18.85;;
38653;SDS011;24413;52.450;20.706;2024-03-06T05:27:30;34.88;;;19.95;;
38653;SDS011;24413;52.450;20.706;2024-03-06T05:29:55;27.83;;;18.88;;
38653;SDS011;24413;52.450;20.706;2024-03-06T05:32:21;35.50;;;18.48;;
38653;SDS011;24413;52.450;20.706;2024-03-06T05:34:46;27.92;;;19.15;;
38653;SDS011;24413;52.450;20.706;2024-03-06T05:37:11;26.52;;;18.70;;
38653;SDS011;24413;52.450;20.706;2024-03-06T05:39:37;32.17;;;20.42;;
38653;SDS011;24413;52.450;20.706;2024-03-06T05:42:03;31.73;;;19.75;;
38653;SDS011;24413;52.450;20.706;2024-03-06T05:44:29;34.25;;;21.38;;
38653;SDS011;24413;52.450;20.706;2024-03-06T05:46:55;32.72;;;19.17;;
38653;SDS011;24413;52.450;20.706;2024-03-06T05:49:20;30.40;;;19.83;;
38653;SDS011;24413;52.450;20.706;2024-03-06T05:51:45;32.47;;;20.37;;
38653;SDS011;24413;52.450;20.706;2024-03-06T05:54:11;28.35;;;19.55;;
38653;SDS011;24413;52.450;20.706;2024-03-06T05:56:36;28.85;;;19.20;;
38653;SDS011;24413;52.450;20.706;2024-03-06T05:59:01;31.38;;;18.67;;
38653;SDS011;24413;52.450;20.706;2024-03-06T06:01:30;32.40;;;19.42;;
38653;SDS011;24413;52.450;20.706;2024-03-06T06:03:55;30.38;;;18.52;;
38653;SDS011;24413;52.450;20.706;2024-03-06T06:06:20;34.90;;;18.48;;
38653;SDS011;24413;52.450;20.706;2024-03-06T06:08:45;28.40;;;16.57;;
38653;SDS011;24413;52.450;20.706;2024-03-06T06:11:11;29.45;;;16.45;;
38653;SDS011;24413;52.450;20.706;2024-03-06T06:13:36;26.50;;;16.27;;
38653;SDS011;24413;52.450;20.706;2024-03-06T06:16:02;28.30;;;16.05;;
38653;SDS011;24413;52.450;20.706;2024-03-06T06:18:30;23.77;;;16.48;;
38653;SDS011;24413;52.450;20.706;2024-03-06T06:20:57;29.13;;;16.75;;
38653;SDS011;24413;52.450;20.706;2024-03-06T06:23:22;27.42;;;15.63;;
38653;SDS011;24413;52.450;20.706;2024-03-06T06:25:47;27.63;;;15.63;;
38653;SDS011;24413;52.450;20.706;2024-03-06T06:28:12;25.13;;;15.77;;
38653;SDS011;24413;52.450;20.706;2024-03-06T06:30:38;23.63;;;15.18;;
38653;SDS011;24413;52.450;20.706;2024-03-06T06:33:03;24.77;;;15.52;;
38653;SDS011;24413;52.450;20.706;2024-03-06T06:35:29;26.17;;;14.50;;
38653;SDS011;24413;52.450;20.706;2024-03-06T06:38:02;25.00;;;14.88;;
38653;SDS011;24413;52.450;20.706;2024-03-06T06:40:27;22.45;;;14.65;;
38653;SDS011;24413;52.450;20.706;2024-03-06T06:42:56;31.00;;;16.42;;
38653;SDS011;24413;52.450;20.706;2024-03-06T06:45:21;26.05;;;18.13;;
38653;SDS011;24413;52.450;20.706;2024-03-06T06:47:47;19.67;;;15.23;;
38653;SDS011;24413;52.450;20.706;2024-03-06T06:50:12;26.30;;;16.95;;
38653;SDS011;24413;52.450;20.706;2024-03-06T06:52:38;31.25;;;17.73;;
38653;SDS011;24413;52.450;20.706;2024-03-06T06:55:03;25.42;;;17.33;;
38653;SDS011;24413;52.450;20.706;2024-03-06T06:57:29;28.50;;;16.80;;
38653;SDS011;24413;52.450;20.706;2024-03-06T06:59:54;26.55;;;16.23;;
38653;SDS011;24413;52.450;20.706;2024-03-06T07:02:20;28.55;;;16.13;;
38653;SDS011;24413;52.450;20.706;2024-03-06T07:04:45;29.70;;;16.58;;
38653;SDS011;24413;52.450;20.706;2024-03-06T07:07:10;28.33;;;16.90;;
38653;SDS011;24413;52.450;20.706;2024-03-06T07:09:35;26.25;;;16.98;;
38653;SDS011;24413;52.450;20.706;2024-03-06T07:12:06;29.65;;;18.15;;
38653;SDS011;24413;52.450;20.706;2024-03-06T07:14:33;29.00;;;16.67;;
38653;SDS011;24413;52.450;20.706;2024-03-06T07:16:58;28.90;;;16.40;;
38653;SDS011;24413;52.450;20.706;2024-03-06T07:19:23;25.93;;;16.80;;
38653;SDS011;24413;52.450;20.706;2024-03-06T07:21:48;26.17;;;17.77;;
38653;SDS011;24413;52.450;20.706;2024-03-06T07:24:14;27.80;;;16.77;;
38653;SDS011;24413;52.450;20.706;2024-03-06T07:26:39;26.17;;;16.27;;
38653;SDS011;24413;52.450;20.706;2024-03-06T07:29:04;23.80;;;17.27;;
38653;SDS011;24413;52.450;20.706;2024-03-06T07:31:37;32.92;;;18.48;;
38653;SDS011;24413;52.450;20.706;2024-03-06T07:34:03;29.83;;;17.83;;
38653;SDS011;24413;52.450;20.706;2024-03-06T07:36:28;25.42;;;17.85;;
38653;SDS011;24413;52.450;20.706;2024-03-06T07:38:53;35.25;;;18.45;;
38653;SDS011;24413;52.450;20.706;2024-03-06T07:41:19;27.85;;;18.00;;
38653;SDS011;24413;52.450;20.706;2024-03-06T07:43:45;28.80;;;17.58;;
38653;SDS011;24413;52.450;20.706;2024-03-06T07:46:10;25.95;;;17.08;;
38653;SDS011;24413;52.450;20.706;2024-03-06T07:48:41;26.17;;;17.70;;
38653;SDS011;24413;52.450;20.706;2024-03-06T07:51:07;34.83;;;20.83;;
38653;SDS011;24413;52.450;20.706;2024-03-06T07:53:32;34.03;;;21.35;;
38653;SDS011;24413;52.450;20.706;2024-03-06T07:55:57;29.00;;;19.17;;
38653;SDS011;24413;52.450;20.706;2024-03-06T07:58:24;27.67;;;18.15;;
38653;SDS011;24413;52.450;20.706;2024-03-06T08:00:49;28.42;;;17.55;;
38653;SDS011;24413;52.450;20.706;2024-03-06T08:03:14;33.28;;;18.17;;
38653;SDS011;24413;52.450;20.706;2024-03-06T08:05:39;23.77;;;17.98;;
38653;SDS011;24413;52.450;20.706;2024-03-06T08:08:05;25.92;;;17.00;;
38653;SDS011;24413;52.450;20.706;2024-03-06T08:10:30;26.95;;;17.33;;
38653;SDS011;24413;52.450;20.706;2024-03-06T08:12:56;27.35;;;17.42;;
38653;SDS011;24413;52.450;20.706;2024-03-06T08:15:21;31.05;;;17.25;;
38653;SDS011;24413;52.450;20.706;2024-03-06T08:17:47;30.52;;;15.95;;
38653;SDS011;24413;52.450;20.706;2024-03-06T08:20:12;26.38;;;17.48;;
38653;SDS011;24413;52.450;20.706;2024-03-06T08:22:38;31.02;;;18.48;;
38653;SDS011;24413;52.450;20.706;2024-03-06T08:25:12;31.80;;;19.02;;
38653;SDS011;24413;52.450;20.706;2024-03-06T08:27:41;28.02;;;17.15;;
38653;SDS011;24413;52.450;20.706;2024-03-06T08:30:07;25.20;;;17.08;;
38653;SDS011;24413;52.450;20.706;2024-03-06T08:32:33;33.65;;;18.33;;
38653;SDS011;24413;52.450;20.706;2024-03-06T08:35:03;25.65;;;17.08;;
38653;SDS011;24413;52.450;20.706;2024-03-06T08:37:31;23.60;;;16.08;;
38653;SDS011;24413;52.450;20.706;2024-03-06T08:39:56;32.25;;;18.48;;
38653;SDS011;24413;52.450;20.706;2024-03-06T08:42:22;26.83;;;16.50;;
38653;SDS011;24413;52.450;20.706;2024-03-06T08:44:47;27.63;;;16.42;;
38653;SDS011;24413;52.450;20.706;2024-03-06T08:47:13;32.42;;;17.52;;
38653;SDS011;24413;52.450;20.706;2024-03-06T08:49:38;32.65;;;18.35;;
38653;SDS011;24413;52.450;20.706;2024-03-06T08:52:03;29.55;;;18.65;;
38653;SDS011;24413;52.450;20.706;2024-03-06T08:54:29;32.42;;;18.65;;
38653;SDS011;24413;52.450;20.706;2024-03-06T08:56:56;44.88;;;18.25;;
38653;SDS011;24413;52.450;20.706;2024-03-06T08:59:24;29.23;;;18.42;;
38653;SDS011;24413;52.450;20.706;2024-03-06T09:01:53;29.00;;;17.17;;
38653;SDS011;24413;52.450;20.706;2024-03-06T09:04:19;26.33;;;16.48;;
38653;SDS011;24413;52.450;20.706;2024-03-06T09:06:44;22.95;;;16.63;;
38653;SDS011;24413;52.450;20.706;2024-03-06T09:09:09;25.15;;;17.15;;
38653;SDS011;24413;52.450;20.706;2024-03-06T09:11:34;30.13;;;18.17;;
38653;SDS011;24413;52.450;20.706;2024-03-06T09:14:00;26.30;;;17.15;;
38653;SDS011;24413;52.450;20.706;2024-03-06T09:16:25;27.85;;;17.02;;
38653;SDS011;24413;52.450;20.706;2024-03-06T09:18:50;28.48;;;15.63;;
38653;SDS011;24413;52.450;20.706;2024-03-06T09:21:16;25.98;;;16.70;;
38653;SDS011;24413;52.450;20.706;2024-03-06T09:23:41;27.88;;;16.92;;
38653;SDS011;24413;52.450;20.706;2024-03-06T09:26:07;25.05;;;15.75;;
38653;SDS011;24413;52.450;20.706;2024-03-06T09:28:32;26.83;;;15.38;;
38653;SDS011;24413;52.450;20.706;2024-03-06T09:30:57;21.07;;;14.60;;
38653;SDS011;24413;52.450;20.706;2024-03-06T09:33:22;20.43;;;14.50;;
38653;SDS011;24413;52.450;20.706;2024-03-06T09:35:48;22.23;;;14.98;;
38653;SDS011;24413;52.450;20.706;2024-03-06T09:38:13;26.98;;;15.20;;
38653;SDS011;24413;52.450;20.706;2024-03-06T09:40:39;24.52;;;15.27;;
38653;SDS011;24413;52.450;20.706;2024-03-06T09:43:06;27.05;;;17.15;;
38653;SDS011;24413;52.450;20.706;2024-03-06T09:45:32;26.13;;;19.25;;
38653;SDS011;24413;52.450;20.706;2024-03-06T09:47:57;22.17;;;15.25;;
38653;SDS011;24413;52.450;20.706;2024-03-06T09:50:23;23.35;;;14.45;;
38653;SDS011;24413;52.450;20.706;2024-03-06T09:52:50;24.90;;;14.77;;
38653;SDS011;24413;52.450;20.706;2024-03-06T09:55:16;22.75;;;14.00;;
38653;SDS011;24413;52.450;20.706;2024-03-06T09:57:42;25.23;;;14.45;;
38653;SDS011;24413;52.450;20.706;2024-03-06T10:00:08;24.27;;;14.90;;
38653;SDS011;24413;52.450;20.706;2024-03-06T10:02:56;25.30;;;15.23;;
38653;SDS011;24413;52.450;20.706;2024-03-06T10:05:23;22.98;;;14.43;;
38653;SDS011;24413;52.450;20.706;2024-03-06T10:07:49;19.10;;;14.00;;
38653;SDS011;24413;52.450;20.706;2024-03-06T10:10:16;24.05;;;14.50;;
38653;SDS011;24413;52.450;20.706;2024-03-06T10:12:41;29.80;;;18.20;;
38653;SDS011;24413;52.450;20.706;2024-03-06T10:15:07;30.10;;;16.95;;
38653;SDS011;24413;52.450;20.706;2024-03-06T10:17:37;25.40;;;14.38;;
38653;SDS011;24413;52.450;20.706;2024-03-06T10:20:16;28.33;;;15.43;;
38653;SDS011;24413;52.450;20.706;2024-03-06T10:22:41;19.40;;;13.63;;
38653;SDS011;24413;52.450;20.706;2024-03-06T10:25:06;25.10;;;15.23;;
38653;SDS011;24413;52.450;20.706;2024-03-06T10:27:34;25.88;;;14.60;;
38653;SDS011;24413;52.450;20.706;2024-03-06T10:30:03;31.10;;;15.30;;
38653;SDS011;24413;52.450;20.706;2024-03-06T10:32:29;19.75;;;12.85;;
38653;SDS011;24413;52.450;20.706;2024-03-06T10:34:55;27.85;;;14.93;;
38653;SDS011;24413;52.450;20.706;2024-03-06T10:37:20;21.05;;;13.38;;
38653;SDS011;24413;52.450;20.706;2024-03-06T10:39:47;22.05;;;12.82;;
38653;SDS011;24413;52.450;20.706;2024-03-06T10:42:15;19.10;;;12.38;;
38653;SDS011;24413;52.450;20.706;2024-03-06T10:44:52;20.75;;;12.30;;
38653;SDS011;24413;52.450;20.706;2024-03-06T10:47:20;14.75;;;10.25;;
38653;SDS011;24413;52.450;20.706;2024-03-06T10:49:46;13.65;;;10.20;;
38653;SDS011;24413;52.450;20.706;2024-03-06T10:52:11;22.15;;;11.05;;
38653;SDS011;24413;52.450;20.706;2024-03-06T10:54:36;13.65;;;10.38;;
38653;SDS011;24413;52.450;20.706;2024-03-06T10:57:06;15.40;;;9.52;;
38653;SDS011;24413;52.450;20.706;2024-03-06T10:59:33;15.95;;;9.65;;
38653;SDS011;24413;52.450;20.706;2024-03-06T11:01:59;17.33;;;10.27;;
38653;SDS011;24413;52.450;20.706;2024-03-06T11:04:28;17.88;;;10.80;;
38653;SDS011;24413;52.450;20.706;2024-03-06T11:06:55;14.05;;;9.38;;
38653;SDS011;24413;52.450;20.706;2024-03-06T11:09:20;14.52;;;9.68;;
38653;SDS011;24413;52.450;20.706;2024-03-06T11:11:53;13.73;;;9.13;;
38653;SDS011;24413;52.450;20.706;2024-03-06T11:14:18;13.82;;;9.25;;
38653;SDS011;24413;52.450;20.706;2024-03-06T11:17:02;15.60;;;9.18;;
38653;SDS011;24413;52.450;20.706;2024-03-06T11:19:28;19.33;;;8.82;;
38653;SDS011;24413;52.450;20.706;2024-03-06T11:21:54;13.13;;;8.20;;
38653;SDS011;24413;52.450;20.706;2024-03-06T11:24:23;15.43;;;8.27;;
38653;SDS011;24413;52.450;20.706;2024-03-06T11:29:17;13.20;;;8.50;;
38653;SDS011;24413;52.450;20.706;2024-03-06T11:32:03;12.20;;;8.13;;
38653;SDS011;24413;52.450;20.706;2024-03-06T11:34:29;11.65;;;8.50;;
38653;SDS011;24413;52.450;20.706;2024-03-06T11:36:58;11.82;;;7.63;;
38653;SDS011;24413;52.450;20.706;2024-03-06T11:39:24;17.77;;;9.05;;
38653;SDS011;24413;52.450;20.706;2024-03-06T11:41:50;10.60;;;7.65;;
38653;SDS011;24413;52.450;20.706;2024-03-06T11:44:16;14.25;;;9.13;;
38653;SDS011;24413;52.450;20.706;2024-03-06T11:46:45;15.77;;;9.80;;
38653;SDS011;24413;52.450;20.706;2024-03-06T11:51:50;13.63;;;8.68;;
38653;SDS011;24413;52.450;20.706;2024-03-06T11:54:16;18.75;;;8.90;;
38653;SDS011;24413;52.450;20.706;2024-03-06T11:56:44;19.73;;;11.05;;
38653;SDS011;24413;52.450;20.706;2024-03-06T11:59:12;13.35;;;9.25;;
38653;SDS011;24413;52.450;20.706;2024-03-06T12:01:37;11.15;;;8.00;;
38653;SDS011;24413;52.450;20.706;2024-03-06T12:04:02;11.45;;;7.85;;
38653;SDS011;24413;52.450;20.706;2024-03-06T12:06:29;13.05;;;7.18;;
38653;SDS011;24413;52.450;20.706;2024-03-06T12:08:54;10.50;;;6.93;;
38653;SDS011;24413;52.450;20.706;2024-03-06T12:11:20;9.73;;;6.60;;
38653;SDS011;24413;52.450;20.706;2024-03-06T12:13:46;10.98;;;7.70;;
38653;SDS011;24413;52.450;20.706;2024-03-06T12:16:13;16.30;;;9.40;;
38653;SDS011;24413;52.450;20.706;2024-03-06T12:18:38;19.77;;;8.48;;
38653;SDS011;24413;52.450;20.706;2024-03-06T12:21:04;14.75;;;8.88;;
38653;SDS011;24413;52.450;20.706;2024-03-06T12:23:29;12.90;;;8.15;;
38653;SDS011;24413;52.450;20.706;2024-03-06T12:26:07;19.00;;;8.48;;
38653;SDS011;24413;52.450;20.706;2024-03-06T12:28:38;13.82;;;7.63;;
38653;SDS011;24413;52.450;20.706;2024-03-06T12:31:04;18.45;;;7.85;;
38653;SDS011;24413;52.450;20.706;2024-03-06T12:33:30;14.15;;;7.25;;
38653;SDS011;24413;52.450;20.706;2024-03-06T12:36:00;10.15;;;7.38;;
38653;SDS011;24413;52.450;20.706;2024-03-06T12:38:25;11.80;;;7.50;;
38653;SDS011;24413;52.450;20.706;2024-03-06T12:40:54;13.73;;;7.38;;
38653;SDS011;24413;52.450;20.706;2024-03-06T12:43:19;11.75;;;7.05;;
38653;SDS011;24413;52.450;20.706;2024-03-06T12:45:44;12.70;;;8.00;;
38653;SDS011;24413;52.450;20.706;2024-03-06T12:48:09;12.30;;;8.30;;
38653;SDS011;24413;52.450;20.706;2024-03-06T12:50:35;16.40;;;7.20;;
38653;SDS011;24413;52.450;20.706;2024-03-06T12:53:00;13.32;;;7.85;;
38653;SDS011;24413;52.450;20.706;2024-03-06T12:55:25;9.77;;;7.60;;
38653;SDS011;24413;52.450;20.706;2024-03-06T12:57:51;16.13;;;9.57;;
38653;SDS011;24413;52.450;20.706;2024-03-06T13:00:16;13.82;;;8.85;;
38653;SDS011;24413;52.450;20.706;2024-03-06T13:02:42;15.65;;;8.02;;
38653;SDS011;24413;52.450;20.706;2024-03-06T13:05:09;19.10;;;8.07;;
38653;SDS011;24413;52.450;20.706;2024-03-06T13:07:34;14.00;;;8.93;;
38653;SDS011;24413;52.450;20.706;2024-03-06T13:10:01;9.77;;;6.78;;
38653;SDS011;24413;52.450;20.706;2024-03-06T13:12:26;7.80;;;6.30;;
38653;SDS011;24413;52.450;20.706;2024-03-06T13:14:51;23.48;;;8.82;;
38653;SDS011;24413;52.450;20.706;2024-03-06T13:17:16;19.20;;;8.68;;
38653;SDS011;24413;52.450;20.706;2024-03-06T13:19:43;16.35;;;8.70;;
38653;SDS011;24413;52.450;20.706;2024-03-06T13:22:08;21.33;;;10.88;;
38653;SDS011;24413;52.450;20.706;2024-03-06T13:24:33;13.25;;;8.38;;
38653;SDS011;24413;52.450;20.706;2024-03-06T13:26:58;14.00;;;7.07;;
38653;SDS011;24413;52.450;20.706;2024-03-06T13:29:24;16.50;;;8.15;;
38653;SDS011;24413;52.450;20.706;2024-03-06T13:31:49;13.15;;;7.28;;
38653;SDS011;24413;52.450;20.706;2024-03-06T13:34:15;11.50;;;7.20;;
38653;SDS011;24413;52.450;20.706;2024-03-06T13:36:41;19.63;;;9.43;;
38653;SDS011;24413;52.450;20.706;2024-03-06T13:39:06;15.90;;;8.25;;
38653;SDS011;24413;52.450;20.706;2024-03-06T13:41:31;16.88;;;8.82;;
38653;SDS011;24413;52.450;20.706;2024-03-06T13:43:57;21.47;;;8.67;;
38653;SDS011;24413;52.450;20.706;2024-03-06T13:46:22;15.93;;;8.90;;
38653;SDS011;24413;52.450;20.706;2024-03-06T13:48:47;11.75;;;8.48;;
38653;SDS011;24413;52.450;20.706;2024-03-06T13:51:12;14.02;;;7.38;;
38653;SDS011;24413;52.450;20.706;2024-03-06T13:53:38;16.33;;;9.50;;
38653;SDS011;24413;52.450;20.706;2024-03-06T13:56:03;9.60;;;7.33;;
38653;SDS011;24413;52.450;20.706;2024-03-06T13:58:28;14.13;;;8.02;;
38653;SDS011;24413;52.450;20.706;2024-03-06T14:00:53;12.20;;;7.33;;
38653;SDS011;24413;52.450;20.706;2024-03-06T14:03:19;14.55;;;7.13;;
38653;SDS011;24413;52.450;20.706;2024-03-06T14:05:44;17.77;;;7.83;;
38653;SDS011;24413;52.450;20.706;2024-03-06T14:08:09;16.05;;;7.15;;
38653;SDS011;24413;52.450;20.706;2024-03-06T14:10:37;11.63;;;7.15;;